createdAt,value
2022-11-15T00:01:16.912Z,101033.75
2022-11-15T00:04:06.310Z,101055.78
2022-11-15T00:06:55.149Z,101060.59
2022-11-15T00:09:46.078Z,101059.28
2022-11-15T00:12:34.022Z,101086.66
2022-11-15T00:15:23.122Z,101063.59
2022-11-15T00:18:19.108Z,101064.88
2022-11-15T00:21:12.608Z,101072.22
2022-11-15T00:24:01.698Z,101098.56
2022-11-15T00:26:49.575Z,101076.56
2022-11-15T00:29:40.759Z,101115.09
2022-11-15T00:32:29.119Z,101098.00
2022-11-15T00:35:18.047Z,101095.75
2022-11-15T00:38:08.830Z,101118.75
2022-11-15T00:40:58.029Z,101101.81
2022-11-15T00:43:46.877Z,101090.44
2022-11-15T00:46:34.833Z,101101.03
2022-11-15T00:49:25.869Z,101092.63
2022-11-15T00:52:15.596Z,101099.75
2022-11-15T00:55:04.368Z,101093.94
2022-11-15T00:57:52.317Z,101101.28
2022-11-15T01:00:40.240Z,101096.28
2022-11-15T01:03:31.456Z,101100.78
2022-11-15T01:06:22.379Z,101142.75
2022-11-15T01:09:10.192Z,101115.19
2022-11-15T01:11:59.924Z,101101.34
2022-11-15T01:14:47.571Z,101092.06
2022-11-15T01:17:35.534Z,101097.38
2022-11-15T01:20:23.669Z,101102.00
2022-11-15T01:23:12.600Z,101097.78
2022-11-15T01:26:05.076Z,101094.50
2022-11-15T01:28:54.527Z,101084.44
2022-11-15T01:31:44.346Z,101078.47
2022-11-15T01:34:32.291Z,101086.75
2022-11-15T01:37:20.616Z,101084.03
2022-11-15T01:40:08.857Z,101089.41
2022-11-15T01:42:56.809Z,101097.59
2022-11-15T01:45:58.791Z,101077.38
2022-11-15T01:48:47.241Z,101082.97
2022-11-15T01:51:36.602Z,101099.31
2022-11-15T01:54:26.325Z,101104.88
2022-11-15T01:57:15.928Z,101104.91
2022-11-15T02:00:06.689Z,101092.72
2022-11-15T02:02:55.002Z,101087.38
2022-11-15T02:05:43.978Z,101089.25
2022-11-15T02:08:33.631Z,101083.00
2022-11-15T02:11:22.103Z,101084.88
2022-11-15T02:14:11.695Z,101082.00
2022-11-15T02:17:10.638Z,101074.97
2022-11-15T02:20:01.773Z,101080.06
2022-11-15T02:23:40.131Z,101079.00
2022-11-15T02:26:47.193Z,101077.06
2022-11-15T02:29:50.238Z,101068.31
2022-11-15T02:33:12.954Z,101065.66
2022-11-15T02:36:06.529Z,101061.16
2022-11-15T02:39:38.735Z,101071.69
2022-11-15T02:42:53.448Z,101069.81
2022-11-15T02:45:47.342Z,101068.88
2022-11-15T02:48:36.787Z,101058.41
2022-11-15T02:51:24.988Z,101066.41
2022-11-15T02:54:25.137Z,101046.38
2022-11-15T02:57:21.921Z,101041.97
2022-11-15T03:00:13.151Z,101044.59
2022-11-15T03:03:12.858Z,101037.53
2022-11-15T03:06:29.349Z,101034.06
2022-11-15T03:09:41.147Z,101026.88
2022-11-15T03:12:38.434Z,101024.09
2022-11-15T03:15:42.027Z,101025.84
2022-11-15T03:18:44.887Z,101035.59
2022-11-15T03:21:35.659Z,101033.91
2022-11-15T03:24:27.560Z,101016.41
2022-11-15T03:27:24.699Z,101005.09
2022-11-15T03:30:13.900Z,101002.44
2022-11-15T03:33:03.280Z,100990.91
2022-11-15T03:35:52.984Z,100997.34
2022-11-15T03:38:41.748Z,100992.59
2022-11-15T03:41:56.638Z,100976.44
2022-11-15T03:45:00.310Z,100977.56
2022-11-15T03:47:56.421Z,100960.84
2022-11-15T03:50:48.881Z,100962.84
2022-11-15T03:53:37.293Z,100963.81
2022-11-15T03:56:25.639Z,100959.81
2022-11-15T03:59:14.078Z,100966.47
2022-11-15T04:02:03.700Z,100943.41
2022-11-15T04:04:52.337Z,100935.38
2022-11-15T04:07:40.494Z,100938.84
2022-11-15T04:10:28.990Z,100924.94
2022-11-15T04:13:17.296Z,100967.16
2022-11-15T04:16:06.639Z,100914.59
2022-11-15T04:19:14.117Z,100923.22
2022-11-15T04:22:21.060Z,100912.66
2022-11-15T04:25:09.022Z,100930.53
2022-11-15T04:27:58.032Z,100899.50
2022-11-15T04:30:46.147Z,100900.31
2022-11-15T04:33:34.484Z,100907.34
2022-11-15T04:36:41.489Z,100891.88
2022-11-15T04:39:29.138Z,100901.31
2022-11-15T04:42:17.051Z,100911.84
2022-11-15T04:45:05.140Z,100918.88
2022-11-15T04:47:53.416Z,100894.50
2022-11-15T04:50:42.272Z,100885.66
2022-11-15T04:53:31.678Z,100885.75
2022-11-15T04:56:20.072Z,100875.53
2022-11-15T04:59:09.725Z,100910.66
2022-11-15T05:01:57.887Z,100902.16
2022-11-15T05:04:46.549Z,100883.84
2022-11-15T05:07:35.606Z,100868.50
2022-11-15T05:10:25.009Z,100868.66
2022-11-15T05:13:13.204Z,100863.22
2022-11-15T05:16:01.597Z,100856.63
2022-11-15T05:18:50.445Z,100850.69
2022-11-15T05:21:39.539Z,100843.84
2022-11-15T05:24:27.844Z,100858.81
2022-11-15T05:27:15.850Z,100858.00
2022-11-15T05:30:03.612Z,100829.97
2022-11-15T05:32:51.552Z,100825.72
2022-11-15T05:35:50.839Z,100828.88
2022-11-15T05:38:39.508Z,100830.91
2022-11-15T05:41:38.284Z,100834.59
2022-11-15T05:44:28.587Z,100852.63
2022-11-15T05:47:22.109Z,100849.66
2022-11-15T05:50:11.269Z,100830.16
2022-11-15T05:53:04.958Z,100825.50
2022-11-15T05:55:54.184Z,100823.38
2022-11-15T05:58:41.825Z,100818.59
2022-11-15T06:01:30.554Z,100849.38
2022-11-15T06:04:22.230Z,100822.06
2022-11-15T06:07:10.395Z,100819.75
2022-11-15T06:09:58.879Z,100819.28
2022-11-15T06:12:47.265Z,100819.13
2022-11-15T06:15:38.171Z,100836.34
2022-11-15T06:18:25.851Z,100821.13
2022-11-15T06:21:13.864Z,100837.69
2022-11-15T06:24:01.839Z,100825.44
2022-11-15T06:26:50.001Z,100830.22
2022-11-15T06:29:37.945Z,100826.44
2022-11-15T06:32:26.242Z,100819.78
2022-11-15T06:35:15.570Z,100839.69
2022-11-15T06:38:13.693Z,100838.06
2022-11-15T06:41:09.877Z,100824.16
2022-11-15T06:43:57.684Z,100820.16
2022-11-15T06:46:45.812Z,100819.50
2022-11-15T06:49:33.788Z,100831.75
2022-11-15T06:52:22.279Z,100816.84
2022-11-15T06:55:11.067Z,100812.53
2022-11-15T06:57:59.364Z,100831.59
2022-11-15T07:00:47.449Z,100827.47
2022-11-15T07:03:42.064Z,100819.81
2022-11-15T07:06:30.249Z,100823.13
2022-11-15T07:09:18.526Z,100834.41
2022-11-15T07:12:08.007Z,100862.91
2022-11-15T07:14:56.148Z,100840.50
2022-11-15T07:17:45.247Z,100837.00
2022-11-15T07:20:33.698Z,100839.16
2022-11-15T07:23:23.127Z,100853.56
2022-11-15T07:26:11.326Z,100838.00
2022-11-15T07:28:59.294Z,100848.91
2022-11-15T07:31:47.298Z,100836.31
2022-11-15T07:34:36.598Z,100836.63
2022-11-15T07:37:25.516Z,100840.91
2022-11-15T07:40:13.784Z,100847.84
2022-11-15T07:43:09.082Z,100844.53
2022-11-15T07:45:59.440Z,100844.31
2022-11-15T07:48:47.820Z,100858.41
2022-11-15T07:51:35.934Z,100829.09
2022-11-15T07:54:23.940Z,100835.19
2022-11-15T07:57:12.321Z,100854.03
2022-11-15T08:00:00.150Z,100836.81
2022-11-15T08:02:48.712Z,100861.47
2022-11-15T08:05:38.391Z,100843.09
2022-11-15T08:08:26.570Z,100861.44
2022-11-15T08:11:14.152Z,100843.75
2022-11-15T08:14:02.113Z,100837.78
2022-11-15T08:16:50.899Z,100844.72
2022-11-15T08:19:39.113Z,100846.03
2022-11-15T08:22:28.724Z,100844.84
2022-11-15T08:25:16.627Z,100839.03
2022-11-15T08:28:07.320Z,100848.94
2022-11-15T08:30:56.681Z,100844.09
2022-11-15T08:33:45.056Z,100846.69
2022-11-15T08:36:40.686Z,100844.34
2022-11-15T08:39:32.667Z,100843.13
2022-11-15T08:42:20.370Z,100847.09
2022-11-15T08:45:10.203Z,100850.34
2022-11-15T08:47:58.779Z,100862.06
2022-11-15T08:50:46.671Z,100858.22
2022-11-15T08:53:35.334Z,100862.09
2022-11-15T08:56:24.174Z,100878.41
2022-11-15T08:59:12.364Z,100863.31
2022-11-15T09:02:00.553Z,100860.56
2022-11-15T09:04:48.560Z,100868.44
2022-11-15T09:07:37.767Z,100862.25
2022-11-15T09:10:27.044Z,100866.91
2022-11-15T09:13:15.641Z,100890.59
2022-11-15T09:16:04.768Z,100876.16
2022-11-15T09:18:52.456Z,100878.03
2022-11-15T09:21:41.522Z,100903.50
2022-11-15T09:24:29.401Z,100883.13
2022-11-15T09:27:19.138Z,100882.19
2022-11-15T09:30:08.804Z,100889.31
2022-11-15T09:32:57.473Z,100892.97
2022-11-15T09:35:44.795Z,100896.00
2022-11-15T09:38:34.241Z,100921.56
2022-11-15T09:42:02.015Z,100915.19
2022-11-15T09:44:49.949Z,100923.28
2022-11-15T09:48:04.898Z,100925.91
2022-11-15T09:51:05.884Z,100958.56
2022-11-15T09:56:44.183Z,100940.50
2022-11-15T09:59:20.263Z,100945.34
2022-11-15T10:02:08.146Z,100949.25
2022-11-15T10:04:40.500Z,100961.03
2022-11-15T10:07:21.780Z,100955.19
2022-11-15T10:10:04.280Z,100963.41
2022-11-15T10:12:35.474Z,100969.19
2022-11-15T10:15:17.450Z,100974.88
2022-11-15T10:18:12.086Z,100980.69
2022-11-15T10:20:52.163Z,100977.88
2022-11-15T10:23:26.301Z,100989.09
2022-11-15T10:26:07.043Z,100982.69
2022-11-15T10:28:37.486Z,101012.19
2022-11-15T10:31:28.895Z,100998.75
2022-11-15T10:34:28.967Z,101002.84
2022-11-15T10:37:06.648Z,101005.19
2022-11-15T10:39:37.161Z,100999.59
2022-11-15T10:42:43.434Z,101003.72
2022-11-15T10:45:34.828Z,101038.47
2022-11-15T10:48:17.284Z,101015.00
2022-11-15T10:50:49.733Z,101023.31
2022-11-15T10:53:46.795Z,101026.31
2022-11-15T10:56:23.542Z,101028.47
2022-11-15T10:59:00.148Z,101028.16
2022-11-15T11:01:34.752Z,101024.81
2022-11-15T11:04:08.675Z,101029.63
2022-11-15T11:06:59.599Z,101036.94
2022-11-15T11:09:45.593Z,101033.13
2022-11-15T11:12:18.131Z,101029.22
2022-11-15T11:14:49.347Z,101046.34
2022-11-15T11:17:45.051Z,101045.88
2022-11-15T11:20:33.544Z,101067.69
2022-11-15T11:23:59.820Z,101068.28
2022-11-15T11:26:39.544Z,101059.44
2022-11-15T11:29:42.589Z,101066.31
2022-11-15T11:32:59.335Z,101072.84
2022-11-15T11:35:49.812Z,101080.28
2022-11-15T11:38:27.798Z,101077.78
2022-11-15T11:41:03.683Z,101081.38
2022-11-15T11:43:39.879Z,101089.47
2022-11-15T11:46:31.893Z,101088.88
2022-11-15T11:49:28.097Z,101085.53
2022-11-15T11:52:18.416Z,101085.91
2022-11-15T11:55:16.145Z,101093.28
2022-11-15T11:57:57.010Z,101095.47
2022-11-15T12:00:35.851Z,101089.72
2022-11-15T12:03:22.117Z,101102.72
2022-11-15T12:06:25.874Z,101096.72
2022-11-15T12:09:09.369Z,101100.06
2022-11-15T12:12:03.996Z,101090.09
2022-11-15T12:14:37.794Z,101097.44
2022-11-15T12:17:09.402Z,101097.72
2022-11-15T12:19:40.425Z,101102.06
2022-11-15T12:22:50.127Z,101115.00
2022-11-15T12:25:40.917Z,101111.34
2022-11-15T12:28:58.398Z,101119.13
2022-11-15T12:31:38.858Z,101109.53
2022-11-15T12:34:33.827Z,101112.19
2022-11-15T12:37:05.675Z,101115.31
2022-11-15T12:39:54.452Z,101120.16
2022-11-15T12:42:27.281Z,101119.84
2022-11-15T12:44:57.743Z,101121.13
2022-11-15T12:47:30.993Z,101123.22
2022-11-15T12:50:01.508Z,101150.66
2022-11-15T12:52:31.929Z,101129.06
2022-11-15T12:55:04.600Z,101141.66
2022-11-15T12:57:39.850Z,101141.66
2022-11-15T13:00:18.665Z,101136.81
2022-11-15T13:02:55.536Z,101136.41
2022-11-15T13:05:32.178Z,101134.31
2022-11-15T13:08:02.979Z,101143.63
2022-11-15T13:10:37.801Z,101142.38
2022-11-15T13:13:12.379Z,101142.16
2022-11-15T13:16:05.265Z,101158.50
2022-11-15T13:18:40.592Z,101151.28
2022-11-15T13:21:45.898Z,101152.84
2022-11-15T13:24:18.798Z,101165.72
2022-11-15T13:26:49.766Z,101171.91
2022-11-15T13:29:23.607Z,101172.66
2022-11-15T13:31:58.627Z,101168.47
2022-11-15T13:34:54.041Z,101165.84
2022-11-15T13:37:25.953Z,101177.38
2022-11-15T13:39:56.843Z,101166.78
2022-11-15T13:42:33.955Z,101174.31
2022-11-15T13:45:09.969Z,101188.78
2022-11-15T13:47:40.859Z,101183.94
2022-11-15T13:50:15.994Z,101179.22
2022-11-15T13:52:51.425Z,101175.25
2022-11-15T13:55:27.157Z,101183.00
2022-11-15T13:58:01.620Z,101192.44
2022-11-15T14:00:38.540Z,101180.94
2022-11-15T14:03:28.739Z,101184.19
2022-11-15T14:06:17.978Z,101186.56
2022-11-15T14:09:08.160Z,101191.19
2022-11-15T14:11:40.366Z,101218.75
2022-11-15T14:14:11.482Z,101186.06
2022-11-15T14:16:46.842Z,101194.44
2022-11-15T14:19:38.818Z,101184.50
2022-11-15T14:22:25.428Z,101180.81
2022-11-15T14:25:11.213Z,101178.09
2022-11-15T14:27:43.607Z,101166.78
2022-11-15T14:30:21.441Z,101172.84
2022-11-15T14:32:53.463Z,101178.09
2022-11-15T14:35:27.060Z,101180.19
2022-11-15T14:37:59.573Z,101180.00
2022-11-15T14:40:30.691Z,101178.94
2022-11-15T14:43:01.779Z,101171.81
2022-11-15T14:45:33.561Z,101172.44
2022-11-15T14:48:06.073Z,101172.41
2022-11-15T14:50:40.060Z,101165.06
2022-11-15T14:53:16.738Z,101180.97
2022-11-15T14:55:49.648Z,101180.22
2022-11-15T14:58:22.000Z,101177.41
2022-11-15T15:00:52.890Z,101176.38
2022-11-15T15:03:23.893Z,101175.53
2022-11-15T15:05:56.164Z,101164.88
2022-11-15T15:08:28.256Z,101180.34
2022-11-15T15:10:58.921Z,101172.59
2022-11-15T15:13:31.319Z,101186.63
2022-11-15T15:16:04.381Z,101161.50
2022-11-15T15:18:37.429Z,101195.50
2022-11-15T15:21:24.929Z,101164.00
2022-11-15T15:24:00.089Z,101185.03
2022-11-15T15:26:32.458Z,101169.34
2022-11-15T15:29:03.448Z,101166.94
2022-11-15T15:31:35.638Z,101167.69
2022-11-15T15:34:13.699Z,101169.66
2022-11-15T15:36:47.948Z,101171.09
2022-11-15T15:39:20.435Z,101165.72
2022-11-15T15:41:54.872Z,101169.69
2022-11-15T15:44:28.440Z,101170.38
2022-11-15T15:47:01.587Z,101177.91
2022-11-15T15:49:32.579Z,101167.16
2022-11-15T15:52:04.827Z,101173.53
2022-11-15T15:54:35.941Z,101173.63
2022-11-15T15:57:08.498Z,101164.19
2022-11-15T15:59:39.601Z,101172.03
2022-11-15T16:02:15.245Z,101174.66
2022-11-15T16:04:46.953Z,101209.50
2022-11-15T16:07:30.467Z,101189.50
2022-11-15T16:10:06.103Z,101180.84
2022-11-15T16:12:40.381Z,101205.28
2022-11-15T16:15:12.283Z,101177.34
2022-11-15T16:17:48.657Z,101171.31
2022-11-15T16:20:39.028Z,101173.19
2022-11-15T16:23:12.372Z,101177.13
2022-11-15T16:26:23.727Z,101181.69
2022-11-15T16:28:56.659Z,101176.00
2022-11-15T16:31:28.486Z,101179.94
2022-11-15T16:33:59.781Z,101178.34
2022-11-15T16:36:33.001Z,101185.53
2022-11-15T16:39:07.552Z,101204.38
2022-11-15T16:41:39.017Z,101177.72
2022-11-15T16:44:09.381Z,101168.75
2022-11-15T16:46:40.127Z,101167.25
2022-11-15T16:49:16.825Z,101166.03
2022-11-15T16:51:52.120Z,101179.41
2022-11-15T16:54:23.786Z,101176.09
2022-11-15T16:56:53.891Z,101179.56
2022-11-15T16:59:25.634Z,101188.34
2022-11-15T17:01:56.467Z,101180.50
2022-11-15T17:04:30.136Z,101190.13
2022-11-15T17:07:00.330Z,101194.59
2022-11-15T17:09:31.452Z,101190.94
2022-11-15T17:12:02.940Z,101205.69
2022-11-15T17:14:32.883Z,101189.72
2022-11-15T17:17:02.958Z,101179.19
2022-11-15T17:19:34.287Z,101183.59
2022-11-15T17:22:04.269Z,101170.53
2022-11-15T17:24:34.344Z,101163.53
2022-11-15T17:27:05.920Z,101153.94
2022-11-15T17:29:36.120Z,101153.94
2022-11-15T17:32:05.629Z,101153.09
2022-11-15T17:34:35.652Z,101147.22
2022-11-15T17:37:06.443Z,101150.78
2022-11-15T17:39:36.372Z,101158.88
2022-11-15T17:42:07.251Z,101159.34
2022-11-15T17:44:38.005Z,101173.94
2022-11-15T17:47:08.058Z,101163.84
2022-11-15T17:49:41.835Z,101160.88
2022-11-15T17:52:12.173Z,101158.59
2022-11-15T17:54:42.158Z,101151.31
2022-11-15T17:57:14.056Z,101162.59
2022-11-15T17:59:44.242Z,101201.81
2022-11-15T18:02:14.568Z,101153.75
2022-11-15T18:04:44.456Z,101163.25
2022-11-15T18:07:15.209Z,101154.50
2022-11-15T18:09:48.380Z,101165.88
2022-11-15T18:12:18.810Z,101173.22
2022-11-15T18:14:48.702Z,101176.84
2022-11-15T18:17:20.291Z,101167.53
2022-11-15T18:19:50.544Z,101163.97
2022-11-15T18:22:22.959Z,101181.66
2022-11-15T18:24:53.134Z,101172.16
2022-11-15T18:27:23.381Z,101159.38
2022-11-15T18:29:53.314Z,101168.97
2022-11-15T18:32:23.543Z,101191.78
2022-11-15T18:34:53.512Z,101175.09
2022-11-15T18:37:23.473Z,101163.84
2022-11-15T18:39:54.213Z,101176.47
2022-11-15T18:42:25.331Z,101159.22
2022-11-15T18:44:55.687Z,101171.78
2022-11-15T18:47:26.736Z,101173.28
2022-11-15T18:50:02.071Z,101170.00
2022-11-15T18:52:32.182Z,101165.16
2022-11-15T18:55:02.057Z,101163.75
2022-11-15T18:57:32.535Z,101157.06
2022-11-15T19:00:02.569Z,101158.84
2022-11-15T19:02:32.591Z,101159.94
2022-11-15T19:05:02.547Z,101159.88
2022-11-15T19:07:32.655Z,101158.25
2022-11-15T19:10:02.563Z,101172.91
2022-11-15T19:12:33.539Z,101189.38
2022-11-15T19:15:08.895Z,101165.91
2022-11-15T19:17:40.279Z,101162.56
2022-11-15T19:20:10.652Z,101169.63
2022-11-15T19:22:40.002Z,101165.09
2022-11-15T19:25:11.288Z,101159.78
2022-11-15T19:27:42.010Z,101152.72
2022-11-15T19:30:12.612Z,101175.16
2022-11-15T19:32:42.702Z,101197.03
2022-11-15T19:35:12.651Z,101154.38
2022-11-15T19:37:43.371Z,101154.59
2022-11-15T19:40:15.582Z,101143.28
2022-11-15T19:42:46.922Z,101148.59
2022-11-15T19:45:18.822Z,101145.38
2022-11-15T19:47:48.971Z,101155.25
2022-11-15T19:50:20.691Z,101165.75
2022-11-15T19:52:50.849Z,101133.91
2022-11-15T19:55:21.931Z,101144.41
2022-11-15T19:57:52.163Z,101164.66
2022-11-15T20:00:23.190Z,101131.69
2022-11-15T20:02:54.601Z,101124.63
2022-11-15T20:05:25.746Z,101158.50
2022-11-15T20:07:56.816Z,101131.53
2022-11-15T20:10:27.620Z,101157.34
2022-11-15T20:12:57.864Z,101122.53
2022-11-15T20:15:28.386Z,101132.13
2022-11-15T20:17:59.191Z,101133.81
2022-11-15T20:20:29.775Z,101133.16
2022-11-15T20:23:02.426Z,101131.59
2022-11-15T20:25:33.943Z,101143.88
2022-11-15T20:28:05.316Z,101176.16
2022-11-15T20:30:36.645Z,101143.38
2022-11-15T20:33:07.144Z,101150.59
2022-11-15T20:35:37.654Z,101143.88
2022-11-15T20:38:12.833Z,101159.50
2022-11-15T20:40:43.165Z,101185.38
2022-11-15T20:43:15.875Z,101152.34
2022-11-15T20:45:47.898Z,101158.75
2022-11-15T20:48:19.499Z,101158.13
2022-11-15T20:50:50.166Z,101154.25
2022-11-15T20:53:22.858Z,101151.06
2022-11-15T20:55:53.748Z,101160.88
2022-11-15T20:58:24.570Z,101159.44
2022-11-15T21:00:58.830Z,101163.19
2022-11-15T21:03:29.507Z,101189.38
2022-11-15T21:05:59.643Z,101159.91
2022-11-15T21:08:31.589Z,101191.28
2022-11-15T21:11:21.130Z,101157.19
2022-11-15T21:13:51.727Z,101156.28
2022-11-15T21:16:21.658Z,101162.41
2022-11-15T21:18:54.143Z,101160.59
2022-11-15T21:21:25.429Z,101161.19
2022-11-15T21:23:55.630Z,101169.84
2022-11-15T21:26:26.328Z,101209.63
2022-11-15T21:28:58.925Z,101169.50
2022-11-15T21:31:31.089Z,101164.16
2022-11-15T21:34:05.841Z,101170.88
2022-11-15T21:36:36.198Z,101189.09
2022-11-15T21:39:07.770Z,101177.63
2022-11-15T21:41:38.236Z,101203.66
2022-11-15T21:44:11.746Z,101201.13
2022-11-15T21:46:42.398Z,101188.19
2022-11-15T21:49:13.653Z,101180.69
2022-11-15T21:51:44.053Z,101198.47
2022-11-15T21:54:15.525Z,101201.38
2022-11-15T21:56:47.866Z,101192.88
2022-11-15T21:59:18.997Z,101193.06
2022-11-15T22:02:09.198Z,101196.78
2022-11-15T22:04:40.506Z,101183.84
2022-11-15T22:07:12.190Z,101200.25
2022-11-15T22:09:43.541Z,101184.47
2022-11-15T22:12:14.975Z,101186.91
2022-11-15T22:14:46.121Z,101176.56
2022-11-15T22:17:16.286Z,101232.09
2022-11-15T22:19:52.664Z,101181.84
2022-11-15T22:22:23.311Z,101179.25
2022-11-15T22:24:53.203Z,101211.50
2022-11-15T22:27:24.372Z,101211.50
2022-11-15T22:29:55.324Z,101205.53
2022-11-15T22:32:25.238Z,101205.53
2022-11-15T22:34:56.381Z,101214.09
2022-11-15T22:37:29.294Z,101197.47
2022-11-15T22:40:00.926Z,101210.41
2022-11-15T22:42:32.063Z,101191.91
2022-11-15T22:45:04.514Z,101196.00
2022-11-15T22:47:35.676Z,101192.66
2022-11-15T22:50:08.645Z,101206.56
2022-11-15T22:52:40.430Z,101224.28
2022-11-15T22:55:13.032Z,101224.50
2022-11-15T22:57:52.053Z,101216.22
2022-11-15T23:00:24.396Z,101227.78
2022-11-15T23:02:54.496Z,101216.75
2022-11-15T23:05:25.332Z,101224.03
2022-11-15T23:07:59.682Z,101273.75
2022-11-15T23:10:49.753Z,101228.09
2022-11-15T23:13:20.652Z,101228.00
2022-11-15T23:16:11.395Z,101231.59
2022-11-15T23:19:13.675Z,101232.41
2022-11-15T23:22:06.101Z,101230.69
2022-11-15T23:24:37.541Z,101231.44
2022-11-15T23:27:09.249Z,101246.97
2022-11-15T23:29:59.228Z,101262.41
2022-11-15T23:32:47.717Z,101237.97
2022-11-15T23:35:18.394Z,101249.19
2022-11-15T23:37:48.695Z,101243.16
2022-11-15T23:40:18.879Z,101254.25
2022-11-15T23:42:50.161Z,101258.44
2022-11-15T23:45:20.547Z,101268.72
2022-11-15T23:47:50.541Z,101257.09
2022-11-15T23:50:21.766Z,101247.38
2022-11-15T23:52:53.768Z,101263.31
2022-11-15T23:55:25.154Z,101267.22
2022-11-15T23:57:55.805Z,101275.16
